Time;durP1;ratioP1;P1;durP2;ratioP2;P2;SDS_P1;SDS_P2;PMS_P1;PMS_P2;Temp;Humidity;BMP_temperature;BMP_pressure;BME280_temperature;BME280_humidity;BME280_pressure;Samples;Min_cycle;Max_cycle;Signal;HPM_P1;HPM_P2
2022/03/20 00:00:01;;;;;;;2.63;0.90;;;14.50;40.30;;;;;;5092513;28;20039;-74
2022/03/20 00:02:30;;;;;;;2.67;0.70;;;14.50;40.30;;;;;;5092965;28;20036;-74
2022/03/20 00:04:56;;;;;;;2.28;0.90;;;14.50;40.30;;;;;;5091771;28;20510;-74
2022/03/20 00:07:22;;;;;;;1.40;0.50;;;14.50;40.40;;;;;;5092153;28;20036;-74
2022/03/20 00:09:51;;;;;;;1.40;0.50;;;14.50;40.50;;;;;;5091380;28;20051;-76
2022/03/20 00:12:16;;;;;;;1.95;0.65;;;14.40;40.50;;;;;;5091364;28;20036;-75
2022/03/20 00:14:42;;;;;;;2.65;0.80;;;14.40;40.40;;;;;;5092332;28;20036;-73
2022/03/20 00:17:13;;;;;;;1.45;0.65;;;14.40;40.50;;;;;;5092099;28;20042;-75
2022/03/20 00:19:39;;;;;;;3.53;0.85;;;14.40;40.60;;;;;;5091634;28;20044;-75
2022/03/20 00:22:06;;;;;;;1.55;0.60;;;14.40;40.60;;;;;;5091997;28;20393;-74
2022/03/20 00:24:33;;;;;;;1.23;0.50;;;14.40;40.60;;;;;;5092043;28;20043;-74
2022/03/20 00:27:00;;;;;;;2.33;0.55;;;14.40;40.60;;;;;;5090381;28;20040;-75
2022/03/20 00:29:26;;;;;;;2.97;1.38;;;14.40;40.60;;;;;;5090818;28;20032;-73
2022/03/20 00:31:53;;;;;;;2.88;0.77;;;14.40;40.60;;;;;;5091902;28;20118;-74
2022/03/20 00:34:19;;;;;;;2.45;0.77;;;14.40;40.70;;;;;;5090518;28;20044;-74
2022/03/20 00:36:45;;;;;;;1.50;0.77;;;14.30;40.70;;;;;;5091883;28;20661;-73
2022/03/20 00:39:10;;;;;;;1.45;0.50;;;14.30;40.80;;;;;;5090224;28;20134;-74
2022/03/20 00:41:39;;;;;;;3.00;0.60;;;14.30;40.80;;;;;;5091685;28;20047;-74
2022/03/20 00:44:05;;;;;;;1.92;0.65;;;14.40;40.90;;;;;;5090208;28;20040;-74
2022/03/20 00:46:33;;;;;;;3.05;1.05;;;14.30;40.90;;;;;;5090424;28;20123;-74
2022/03/20 00:48:59;;;;;;;2.58;1.27;;;14.30;40.80;;;;;;5090646;28;20127;-76
2022/03/20 00:51:25;;;;;;;2.70;1.02;;;14.30;40.80;;;;;;5090808;28;20601;-74
2022/03/20 00:53:53;;;;;;;1.65;0.95;;;14.30;40.90;;;;;;5090728;28;20110;-74
2022/03/20 00:56:19;;;;;;;2.38;0.80;;;14.20;40.90;;;;;;5090236;28;20040;-74
2022/03/20 00:58:47;;;;;;;2.05;0.65;;;14.20;40.90;;;;;;5089883;28;20051;-74
2022/03/20 01:01:14;;;;;;;2.42;1.00;;;14.20;41.00;;;;;;5091528;28;20040;-73
2022/03/20 01:03:41;;;;;;;2.03;0.80;;;14.20;41.00;;;;;;5090105;28;20504;-74
2022/03/20 01:06:08;;;;;;;1.60;1.08;;;14.10;41.80;;;;;;5089956;28;20519;-73
2022/03/20 01:08:35;;;;;;;3.35;1.27;;;14.10;41.00;;;;;;5090168;28;20092;-74
2022/03/20 01:11:02;;;;;;;4.82;1.45;;;14.10;41.00;;;;;;5091539;28;20420;-74
2022/03/20 01:13:29;;;;;;;3.15;1.05;;;14.10;41.10;;;;;;5090482;28;20119;-76
2022/03/20 01:15:58;;;;;;;3.05;1.00;;;14.10;41.20;;;;;;5090783;28;20131;-73
2022/03/20 01:18:24;;;;;;;4.22;1.40;;;14.10;41.20;;;;;;5090121;28;20043;-74
2022/03/20 01:20:54;;;;;;;2.47;1.00;;;14.00;41.20;;;;;;5090267;28;20044;-74
2022/03/20 01:23:21;;;;;;;2.80;0.95;;;14.00;41.30;;;;;;5091434;28;20050;-74
2022/03/20 01:25:48;;;;;;;4.18;1.58;;;13.90;41.30;;;;;;5091859;28;20063;-75
2022/03/20 01:28:15;;;;;;;5.05;2.38;;;13.90;41.40;;;;;;5090535;28;20101;-73
2022/03/20 01:30:40;;;;;;;3.08;1.33;;;13.90;41.40;;;;;;5089757;28;20039;-73
2022/03/20 01:33:06;;;;;;;2.20;1.20;;;13.90;41.40;;;;;;5090385;28;20036;-76
2022/03/20 01:35:32;;;;;;;2.83;1.63;;;13.90;41.50;;;;;;5090180;28;20178;-74
2022/03/20 01:37:58;;;;;;;3.53;1.65;;;13.90;41.50;;;;;;5090939;28;20040;-74
2022/03/20 01:40:25;;;;;;;3.53;1.80;;;13.80;41.50;;;;;;5090661;28;20055;-73
2022/03/20 01:42:51;;;;;;;2.28;1.27;;;13.80;41.50;;;;;;5090346;28;20128;-74
2022/03/20 01:45:19;;;;;;;2.22;1.67;;;13.80;41.50;;;;;;5089776;28;20039;-74
2022/03/20 01:47:47;;;;;;;3.60;2.08;;;13.80;41.50;;;;;;5089006;28;20078;-74
2022/03/20 01:50:15;;;;;;;3.88;2.88;;;13.70;41.40;;;;;;5090761;28;20472;-74
2022/03/20 01:52:40;;;;;;;3.42;1.80;;;13.80;41.50;;;;;;5090680;28;20050;-74
2022/03/20 01:55:08;;;;;;;3.00;1.42;;;13.80;41.50;;;;;;5093351;28;20532;-74
2022/03/20 01:57:37;;;;;;;3.53;1.63;;;13.80;41.40;;;;;;5093390;28;20040;-74
2022/03/20 02:00:06;;;;;;;4.18;2.08;;;13.80;41.30;;;;;;5092944;28;20039;-74
2022/03/20 02:02:31;;;;;;;2.75;1.52;;;13.80;41.30;;;;;;5093325;28;20059;-74
2022/03/20 02:04:57;;;;;;;3.75;1.92;;;13.80;41.10;;;;;;5093393;28;20032;-73
2022/03/20 02:07:24;;;;;;;3.17;1.95;;;13.80;41.10;;;;;;5094178;28;20462;-74
2022/03/20 02:09:50;;;;;;;2.55;1.98;;;13.80;41.20;;;;;;5093162;28;20036;-74
2022/03/20 02:12:16;;;;;;;3.47;2.25;;;13.80;41.10;;;;;;5093914;28;20132;-73
2022/03/20 02:14:42;;;;;;;4.72;2.08;;;13.80;41.10;;;;;;5094921;28;20040;-74
2022/03/20 02:17:10;;;;;;;2.95;1.60;;;13.80;41.10;;;;;;5093532;28;20039;-74
2022/03/20 02:19:38;;;;;;;3.22;1.67;;;13.70;41.10;;;;;;5094344;28;20050;-74
2022/03/20 02:22:04;;;;;;;4.95;1.90;;;13.80;41.20;;;;;;5093210;28;20058;-75
2022/03/20 02:24:34;;;;;;;3.65;1.92;;;13.70;41.10;;;;;;5093275;28;20457;-73
2022/03/20 02:27:22;;;;;;;2.13;1.63;;;13.80;41.10;;;;;;5093123;28;20069;-73
2022/03/20 02:32:35;;;;;;;2.88;1.92;;;13.80;41.10;;;;;;5152370;27;1172097;-71
2022/03/20 02:35:04;;;;;;;2.63;1.63;;;13.80;41.00;;;;;;5153183;27;20478;-71
2022/03/20 02:37:31;;;;;;;4.05;1.60;;;13.80;41.00;;;;;;5153142;27;20086;-72
2022/03/20 02:40:01;;;;;;;2.97;1.70;;;13.70;41.00;;;;;;5152710;27;20489;-71
2022/03/20 02:42:27;;;;;;;3.30;2.22;;;13.70;41.00;;;;;;5152921;27;20040;-73
2022/03/20 02:45:00;;;;;;;3.95;2.25;;;13.70;41.00;;;;;;5152903;27;20460;-73
2022/03/20 02:47:29;;;;;;;2.80;1.70;;;13.70;41.00;;;;;;5152906;27;20049;-73
2022/03/20 02:49:59;;;;;;;2.38;1.77;;;13.70;40.90;;;;;;5152570;27;20053;-73
2022/03/20 02:52:28;;;;;;;4.35;2.05;;;13.70;41.00;;;;;;5152625;27;20437;-73
2022/03/20 02:54:55;;;;;;;4.43;2.03;;;13.70;40.90;;;;;;5171253;27;20041;-73
2022/03/20 02:57:21;;;;;;;3.13;2.38;;;13.70;41.00;;;;;;5152822;27;20027;-73
2022/03/20 02:59:47;;;;;;;4.35;2.75;;;13.70;41.00;;;;;;5152483;27;20507;-73
2022/03/20 03:02:13;;;;;;;3.13;1.92;;;13.60;41.10;;;;;;5152426;27;20046;-74
2022/03/20 03:04:40;;;;;;;3.38;2.40;;;13.60;41.20;;;;;;5152261;27;20065;-74
2022/03/20 03:07:07;;;;;;;3.15;2.20;;;13.60;41.20;;;;;;5152344;27;20046;-73
2022/03/20 03:12:18;;;;;;;3.85;2.03;;;13.50;41.20;;;;;;5170391;27;20057;-74
2022/03/20 03:17:30;;;;;;;3.67;2.28;;;13.50;41.20;;;;;;5152231;27;20043;-73
2022/03/20 03:19:56;;;;;;;5.50;3.22;;;13.50;41.20;;;;;;5170577;27;20023;-74
2022/03/20 03:22:26;;;;;;;4.78;2.72;;;13.50;41.20;;;;;;5152041;27;20041;-74
2022/03/20 03:24:54;;;;;;;2.85;2.05;;;13.50;41.20;;;;;;5151760;27;20042;-73
2022/03/20 03:27:19;;;;;;;4.78;2.50;;;13.50;41.20;;;;;;5170853;27;20046;-73
2022/03/20 03:29:48;;;;;;;5.70;2.83;;;13.50;41.20;;;;;;5152096;27;20114;-73
2022/03/20 03:32:14;;;;;;;3.35;2.40;;;13.50;41.20;;;;;;5151385;27;20490;-74
2022/03/20 03:37:25;;;;;;;5.18;3.25;;;13.50;41.10;;;;;;5151546;27;20042;-74
2022/03/20 03:39:51;;;;;;;4.05;2.53;;;13.50;41.10;;;;;;5169698;27;20042;-73
2022/03/20 03:42:16;;;;;;;4.55;2.78;;;13.50;41.10;;;;;;5165106;27;20026;-73
2022/03/20 03:44:42;;;;;;;3.00;2.28;;;13.40;41.00;;;;;;5137158;27;20497;-74
2022/03/20 03:47:10;;;;;;;4.60;2.55;;;13.40;41.00;;;;;;5137561;27;20046;-73
2022/03/20 03:49:36;;;;;;;3.53;2.75;;;13.40;41.00;;;;;;5155669;27;20038;-73
2022/03/20 03:52:03;;;;;;;4.10;2.95;;;13.40;41.00;;;;;;5136977;27;20035;-74
2022/03/20 03:54:29;;;;;;;5.82;3.42;;;13.40;41.00;;;;;;5137146;27;20057;-73
2022/03/20 03:56:55;;;;;;;4.43;2.85;;;13.40;41.00;;;;;;5136966;27;20043;-73
2022/03/20 03:59:23;;;;;;;4.20;3.00;;;13.40;40.90;;;;;;5136978;27;20122;-73
2022/03/20 04:01:49;;;;;;;3.78;2.97;;;13.40;41.00;;;;;;5136708;27;20478;-74
2022/03/20 04:04:15;;;;;;;4.18;3.25;;;13.40;40.90;;;;;;5136946;27;20039;-73
2022/03/20 04:06:41;;;;;;;3.67;2.95;;;13.40;40.90;;;;;;5155528;27;20030;-73
2022/03/20 04:09:07;;;;;;;3.95;3.00;;;13.40;40.90;;;;;;5136781;27;20070;-73
2022/03/20 04:11:32;;;;;;;4.30;3.38;;;13.30;40.80;;;;;;5136911;27;20085;-73
2022/03/20 04:13:58;;;;;;;3.47;3.10;;;13.30;40.80;;;;;;5155995;27;20463;-74
2022/03/20 04:16:27;;;;;;;5.80;3.22;;;13.40;40.80;;;;;;5137324;27;20051;-73
2022/03/20 04:18:53;;;;;;;3.78;3.25;;;13.30;40.70;;;;;;5137278;27;20068;-73
2022/03/20 04:21:18;;;;;;;4.47;3.03;;;13.30;40.70;;;;;;5136374;27;20051;-72
2022/03/20 04:23:49;;;;;;;4.82;3.45;;;13.30;40.70;;;;;;5136343;27;20047;-73
2022/03/20 04:26:17;;;;;;;6.25;3.80;;;13.30;40.60;;;;;;5154993;27;20045;-74
2022/03/20 04:28:44;;;;;;;4.57;4.13;;;13.30;40.60;;;;;;5136731;27;20118;-73
2022/03/20 04:31:15;;;;;;;3.85;2.88;;;13.30;40.60;;;;;;5136319;27;20102;-73
2022/03/20 04:33:42;;;;;;;5.47;3.55;;;13.30;40.60;;;;;;5136978;27;20050;-74
2022/03/20 04:36:09;;;;;;;4.82;3.67;;;13.30;40.60;;;;;;5136784;27;20481;-73
2022/03/20 04:38:38;;;;;;;5.78;4.20;;;13.30;40.60;;;;;;5136477;27;20425;-73
2022/03/20 04:41:04;;;;;;;4.53;3.38;;;13.30;40.50;;;;;;5136394;27;20038;-73
2022/03/20 04:43:30;;;;;;;5.93;3.83;;;13.30;40.50;;;;;;5155112;27;20038;-74
2022/03/20 04:45:56;;;;;;;4.90;3.17;;;13.20;40.50;;;;;;5136074;27;20044;-73
2022/03/20 04:59:27;;;;;;;5.47;3.65;;;13.20;40.50;;;;;;5135671;27;20046;-73
2022/03/20 05:01:53;;;;;;;5.88;4.35;;;13.20;40.40;;;;;;5154784;27;20039;-73
2022/03/20 05:04:19;;;;;;;4.88;3.92;;;13.20;40.30;;;;;;5136040;27;20041;-73
2022/03/20 05:06:45;;;;;;;5.85;4.43;;;13.20;40.30;;;;;;5154179;27;20070;-74
2022/03/20 05:14:44;;;;;;;5.43;4.20;;;13.20;40.10;;;;;;5121453;27;20401;-73
2022/03/20 05:17:10;;;;;;;5.20;4.28;;;13.20;40.10;;;;;;5135323;27;20046;-73
2022/03/20 05:19:37;;;;;;;5.43;4.57;;;13.20;40.00;;;;;;5135479;27;20038;-73
2022/03/20 05:22:05;;;;;;;5.90;4.85;;;13.10;40.00;;;;;;5135109;27;20478;-73
2022/03/20 05:24:34;;;;;;;5.53;4.60;;;13.20;39.90;;;;;;5135250;27;20039;-73
2022/03/20 05:27:00;;;;;;;6.97;5.15;;;13.10;39.80;;;;;;5135373;27;20058;-74
2022/03/20 05:29:25;;;;;;;7.10;5.00;;;13.10;39.80;;;;;;5135233;27;20035;-72
2022/03/20 05:31:53;;;;;;;6.93;5.00;;;13.10;39.80;;;;;;5153408;27;20054;-73
2022/03/20 05:34:19;;;;;;;5.78;5.18;;;13.10;39.70;;;;;;5135351;27;20504;-72
2022/03/20 05:36:47;;;;;;;8.77;5.30;;;13.00;39.60;;;;;;5153594;27;20039;-73
2022/03/20 05:39:13;;;;;;;6.80;4.97;;;13.10;39.70;;;;;;5153976;27;20031;-73
2022/03/20 05:41:47;;;;;;;5.40;4.65;;;13.10;39.70;;;;;;5154157;27;20469;-73
2022/03/20 05:44:13;;;;;;;5.88;5.10;;;13.00;39.60;;;;;;5135684;27;20039;-73
2022/03/20 05:46:40;;;;;;;5.40;4.90;;;13.10;39.60;;;;;;5135530;27;20053;-74
2022/03/20 05:49:06;;;;;;;6.65;5.13;;;13.10;39.60;;;;;;5135500;27;20042;-72
2022/03/20 05:51:34;;;;;;;6.22;4.93;;;13.10;39.60;;;;;;5135222;27;20067;-72
2022/03/20 05:54:00;;;;;;;6.75;6.05;;;13.10;39.60;;;;;;5153815;27;20034;-73
2022/03/20 05:59:12;;;;;;;6.07;5.00;;;13.10;39.50;;;;;;5153636;27;20050;-73
2022/03/20 06:01:39;;;;;;;6.93;5.25;;;13.10;39.50;;;;;;5135085;27;20065;-73
2022/03/20 06:04:05;;;;;;;6.05;5.22;;;13.10;39.40;;;;;;5134997;27;20039;-73
2022/03/20 06:06:32;;;;;;;7.20;5.47;;;13.10;39.30;;;;;;5134598;27;20034;-72
2022/03/20 06:08:58;;;;;;;7.50;5.47;;;13.10;39.30;;;;;;5153795;27;20060;-73
2022/03/20 06:11:26;;;;;;;7.63;5.80;;;13.10;39.30;;;;;;5134949;27;20030;-73
2022/03/20 06:13:53;;;;;;;7.97;6.00;;;13.10;39.30;;;;;;5134965;27;20490;-74
2022/03/20 06:16:22;;;;;;;6.40;5.22;;;13.10;39.20;;;;;;5134907;27;20074;-73
2022/03/20 06:18:51;;;;;;;8.25;5.68;;;13.10;39.20;;;;;;5135258;27;20047;-74
2022/03/20 06:21:17;;;;;;;6.72;5.95;;;13.10;39.10;;;;;;5135005;27;20049;-74
2022/03/20 06:23:45;;;;;;;8.05;5.95;;;13.00;39.10;;;;;;5153440;27;20047;-74
2022/03/20 06:26:13;;;;;;;7.50;6.00;;;13.10;39.10;;;;;;5134910;27;20398;-74
2022/03/20 06:28:40;;;;;;;7.25;5.90;;;13.00;39.40;;;;;;5134693;27;20046;-73
2022/03/20 06:31:10;;;;;;;6.22;5.57;;;13.00;38.90;;;;;;5134168;27;20059;-74
2022/03/20 06:33:37;;;;;;;7.75;6.15;;;13.00;38.90;;;;;;5134986;27;20100;-74
2022/03/20 06:36:04;;;;;;;8.32;6.25;;;13.00;38.90;;;;;;5134867;27;20082;-75
2022/03/20 06:38:30;;;;;;;6.72;6.03;;;13.00;38.90;;;;;;5153583;27;20196;-74
2022/03/20 06:41:00;;;;;;;7.75;6.07;;;13.00;38.80;;;;;;5134761;27;20509;-74
2022/03/20 06:43:25;;;;;;;6.60;5.43;;;13.00;38.70;;;;;;5153211;27;20057;-74
2022/03/20 06:45:53;;;;;;;7.78;6.90;;;13.00;39.10;;;;;;5153480;27;20038;-74
2022/03/20 06:48:19;;;;;;;9.00;6.60;;;13.00;38.70;;;;;;5134570;27;20051;-74
2022/03/20 06:50:45;;;;;;;8.57;7.25;;;13.00;38.70;;;;;;5152993;27;20051;-74
2022/03/20 06:53:13;;;;;;;7.70;6.90;;;13.00;38.40;;;;;;5134456;27;20121;-74
2022/03/20 06:55:39;;;;;;;8.27;6.88;;;13.00;38.40;;;;;;5134896;27;20041;-75
2022/03/20 06:58:05;;;;;;;8.43;7.53;;;13.00;38.30;;;;;;5134713;27;20035;-74
2022/03/20 07:00:34;;;;;;;8.25;7.43;;;13.00;38.30;;;;;;5133963;27;20454;-74
2022/03/20 07:03:03;;;;;;;7.55;6.78;;;12.90;38.20;;;;;;5151561;27;20057;-75
2022/03/20 07:05:30;;;;;;;8.85;7.22;;;12.90;38.20;;;;;;5151824;27;20047;-74
2022/03/20 07:07:55;;;;;;;9.82;7.07;;;12.90;38.00;;;;;;5151568;27;20051;-74
2022/03/20 07:10:23;;;;;;;9.68;7.20;;;12.90;38.10;;;;;;5152426;27;20050;-75
2022/03/20 07:12:50;;;;;;;7.88;6.75;;;13.00;38.20;;;;;;5152467;27;20117;-75
2022/03/20 07:15:18;;;;;;;10.10;8.20;;;13.00;38.10;;;;;;5152554;27;20039;-75
2022/03/20 07:17:48;;;;;;;9.85;7.63;;;12.90;37.90;;;;;;5152626;27;20077;-75
2022/03/20 07:20:17;;;;;;;10.13;8.13;;;13.00;37.90;;;;;;5155406;27;20495;-74
2022/03/20 07:22:43;;;;;;;8.55;7.35;;;13.00;37.80;;;;;;5155098;27;20272;-75
2022/03/20 07:30:41;;;;;;;8.60;7.25;;;13.00;37.70;;;;;;5154542;27;20133;-75
2022/03/20 07:33:10;;;;;;;9.25;8.18;;;13.00;37.60;;;;;;5154803;27;20118;-76
2022/03/20 07:35:35;;;;;;;9.85;7.65;;;13.00;37.60;;;;;;5155325;27;20046;-75
2022/03/20 07:38:01;;;;;;;10.15;8.70;;;13.00;37.50;;;;;;5154750;27;20413;-76
2022/03/20 07:40:27;;;;;;;10.65;8.50;;;13.00;37.40;;;;;;5155315;27;20038;-76
2022/03/20 07:42:52;;;;;;;10.50;8.75;;;13.00;37.30;;;;;;5155091;27;20033;-76
2022/03/20 07:45:21;;;;;;;11.75;8.90;;;13.00;37.20;;;;;;5156512;27;20470;-76
2022/03/20 07:47:47;;;;;;;10.10;8.48;;;13.00;37.30;;;;;;5154809;27;20091;-75
2022/03/20 07:50:12;;;;;;;11.35;10.07;;;12.90;37.30;;;;;;5155011;27;20066;-76
2022/03/20 07:52:38;;;;;;;10.15;8.80;;;13.00;37.20;;;;;;5155426;27;20088;-75
2022/03/20 07:55:07;;;;;;;11.00;8.30;;;12.90;37.00;;;;;;5154457;27;20039;-76
2022/03/20 07:57:38;;;;;;;11.63;9.52;;;13.00;37.00;;;;;;5154356;27;20034;-75
2022/03/20 08:00:08;;;;;;;13.13;9.18;;;12.90;37.00;;;;;;5154667;27;20034;-76
2022/03/20 08:02:34;;;;;;;10.77;8.43;;;12.90;37.00;;;;;;5154888;27;20416;-76
2022/03/20 08:05:01;;;;;;;11.40;8.75;;;12.90;37.10;;;;;;5154132;27;20478;-75
2022/03/20 08:07:27;;;;;;;9.68;7.70;;;13.00;37.10;;;;;;5154436;27;20038;-75
2022/03/20 08:09:55;;;;;;;8.32;7.22;;;13.10;37.10;;;;;;5154667;27;20034;-76
2022/03/20 08:12:22;;;;;;;9.45;7.60;;;13.40;36.90;;;;;;5154289;27;20038;-75
2022/03/20 08:14:48;;;;;;;8.75;7.15;;;13.90;36.10;;;;;;5154592;27;20050;-76
2022/03/20 08:17:14;;;;;;;8.20;7.22;;;14.60;34.80;;;;;;5155744;27;20091;-76
2022/03/20 08:19:40;;;;;;;7.53;6.72;;;15.60;33.40;;;;;;5154858;27;20043;-75
2022/03/20 08:22:05;;;;;;;9.27;7.15;;;16.50;31.70;;;;;;5155604;27;20046;-75
2022/03/20 08:24:31;;;;;;;7.93;7.13;;;17.50;30.40;;;;;;5154056;27;20499;-75
2022/03/20 08:26:57;;;;;;;10.90;7.97;;;18.30;29.40;;;;;;5154301;27;20095;-76
2022/03/20 08:29:23;;;;;;;9.13;7.13;;;19.00;28.60;;;;;;5154011;27;20042;-76
2022/03/20 08:31:49;;;;;;;8.02;7.22;;;19.60;27.90;;;;;;5154756;27;20046;-76
2022/03/20 08:34:16;;;;;;;8.25;7.20;;;20.10;27.40;;;;;;5153620;27;20039;-75
2022/03/20 08:36:43;;;;;;;8.48;7.57;;;20.40;27.20;;;;;;5153890;27;20035;-76
2022/03/20 08:39:09;;;;;;;8.63;7.72;;;20.50;26.90;;;;;;5154836;27;20039;-75
2022/03/20 08:41:35;;;;;;;11.55;6.80;;;20.60;26.90;;;;;;5154841;27;20122;-75
2022/03/20 08:44:05;;;;;;;8.10;7.30;;;20.50;26.80;;;;;;5154355;27;20470;-76
2022/03/20 08:46:31;;;;;;;8.82;7.93;;;20.50;26.90;;;;;;5153824;27;20091;-75
2022/03/20 08:48:57;;;;;;;8.48;7.57;;;20.40;26.90;;;;;;5153115;27;20117;-75
2022/03/20 08:51:24;;;;;;;10.48;8.32;;;20.20;27.00;;;;;;5153414;27;20113;-74
2022/03/20 08:53:50;;;;;;;8.63;7.53;;;20.10;27.10;;;;;;5153375;27;20385;-76
2022/03/20 08:56:16;;;;;;;9.20;8.30;;;19.90;27.20;;;;;;5153367;27;20039;-75
2022/03/20 08:58:41;;;;;;;9.10;7.85;;;19.80;27.30;;;;;;5153069;27;20038;-75
2022/03/20 09:01:07;;;;;;;8.80;7.28;;;19.70;27.50;;;;;;5153560;27;20045;-75
2022/03/20 09:03:33;;;;;;;12.57;10.10;;;19.40;27.60;;;;;;5154178;27;20398;-75
2022/03/20 09:05:59;;;;;;;9.20;8.23;;;19.20;27.60;;;;;;5153735;27;20053;-74
2022/03/20 09:08:25;;;;;;;10.70;9.10;;;18.90;27.90;;;;;;5153471;27;20046;-76
2022/03/20 09:10:51;;;;;;;9.20;8.27;;;18.70;28.10;;;;;;5155059;27;20035;-75
2022/03/20 09:13:18;;;;;;;9.82;8.60;;;18.50;28.30;;;;;;5153503;27;20401;-76
2022/03/20 09:15:44;;;;;;;10.10;8.73;;;18.30;28.50;;;;;;5153253;27;20042;-75
2022/03/20 09:20:55;;;;;;;12.90;10.77;;;17.90;28.80;;;;;;5153321;27;20432;-76
2022/03/20 09:23:21;;;;;;;15.32;11.55;;;17.70;28.90;;;;;;5152948;27;20050;-76
2022/03/20 09:25:46;;;;;;;12.13;10.82;;;17.40;28.90;;;;;;5154217;27;20031;-75
2022/03/20 09:28:13;;;;;;;14.57;10.75;;;17.10;29.00;;;;;;5153116;27;20484;-74
2022/03/20 09:30:41;;;;;;;13.60;11.27;;;16.90;29.10;;;;;;5152734;27;20052;-75
2022/03/20 09:33:08;;;;;;;13.50;11.38;;;16.60;29.40;;;;;;5152896;27;20043;-75
2022/03/20 09:35:34;;;;;;;13.77;10.98;;;16.40;29.60;;;;;;5152984;27;20395;-75
2022/03/20 09:38:02;;;;;;;13.32;11.85;;;16.30;29.90;;;;;;5154485;27;20423;-75
2022/03/20 09:40:27;;;;;;;12.98;11.57;;;16.10;30.00;;;;;;5152379;27;20095;-75
2022/03/20 09:42:53;;;;;;;12.32;11.00;;;16.00;30.20;;;;;;5152792;27;20034;-75
2022/03/20 09:45:26;;;;;;;11.80;10.60;;;15.80;30.40;;;;;;5152469;27;20398;-75
2022/03/20 09:47:53;;;;;;;12.60;11.38;;;15.70;30.50;;;;;;5154175;27;20034;-76
2022/03/20 09:50:20;;;;;;;13.65;12.10;;;15.60;30.80;;;;;;5152598;27;20039;-75
2022/03/20 09:52:49;;;;;;;12.43;10.10;;;15.40;30.80;;;;;;5153967;27;20058;-75
2022/03/20 09:55:14;;;;;;;13.55;12.13;;;15.40;31.10;;;;;;5152705;27;20122;-75
2022/03/20 09:57:40;;;;;;;13.15;10.88;;;15.30;31.20;;;;;;5152856;27;20091;-76
2022/03/20 10:00:14;;;;;;;13.15;11.80;;;15.20;31.20;;;;;;5152164;27;20039;-75
2022/03/20 10:02:40;;;;;;;12.13;10.88;;;15.20;31.50;;;;;;5152103;27;20053;-75
2022/03/20 10:05:07;;;;;;;14.65;13.02;;;15.10;31.50;;;;;;5153332;27;20031;-74
2022/03/20 10:07:36;;;;;;;13.10;11.75;;;15.10;31.60;;;;;;5152533;27;20099;-73
2022/03/20 10:12:53;;;;;;;14.82;13.25;;;15.20;31.80;;;;;;5109649;27;20142;-72
2022/03/20 10:15:45;;;;;;;16.55;11.45;;;15.10;31.70;;;;;;5091286;28;20074;-74
2022/03/20 10:18:18;;;;;;;14.43;12.93;;;15.10;31.50;;;;;;5091329;28;20051;-74
2022/03/20 10:20:52;;;;;;;13.68;12.20;;;15.10;31.70;;;;;;5109297;28;20043;-75
2022/03/20 10:26:22;;;;;;;13.75;12.00;;;15.00;31.70;;;;;;5089099;28;20421;-75
2022/03/20 10:28:49;;;;;;;13.45;12.05;;;15.00;31.90;;;;;;5087691;28;20052;-74
2022/03/20 10:31:20;;;;;;;14.68;12.77;;;15.10;31.90;;;;;;5088176;28;20397;-75
2022/03/20 10:34:00;;;;;;;13.02;11.40;;;15.10;31.90;;;;;;5088160;28;20485;-74
2022/03/20 10:36:26;;;;;;;13.45;12.05;;;15.10;32.00;;;;;;5088478;28;20045;-75
2022/03/20 10:38:51;;;;;;;13.35;12.00;;;15.10;31.90;;;;;;5088007;28;20036;-75
2022/03/20 10:46:58;;;;;;;15.98;12.65;;;15.20;31.90;;;;;;5152126;27;1163064;-73
2022/03/20 10:49:25;;;;;;;14.38;12.45;;;15.20;31.90;;;;;;5152610;27;20087;-73
2022/03/20 10:52:08;;;;;;;15.52;13.88;;;15.10;31.90;;;;;;5152764;27;20177;-72
2022/03/20 10:54:41;;;;;;;15.48;13.23;;;15.20;31.80;;;;;;5170699;27;20039;-75
2022/03/20 10:57:08;;;;;;;13.40;11.35;;;15.10;31.90;;;;;;5152581;27;20034;-74
2022/03/20 10:59:34;;;;;;;15.73;12.95;;;15.10;32.00;;;;;;5152217;27;20046;-75
2022/03/20 11:02:01;;;;;;;15.48;13.77;;;15.10;32.00;;;;;;5152614;27;20070;-75
2022/03/20 11:04:28;;;;;;;15.40;13.10;;;15.20;32.10;;;;;;5152235;27;20034;-74
2022/03/20 11:06:55;;;;;;;13.75;12.35;;;15.10;32.00;;;;;;5170795;27;20056;-75
2022/03/20 11:09:21;;;;;;;15.15;13.55;;;15.10;32.10;;;;;;5170804;27;20027;-75
2022/03/20 11:11:51;;;;;;;15.57;13.60;;;15.00;32.20;;;;;;5152656;27;20046;-75
2022/03/20 11:14:19;;;;;;;15.43;13.97;;;15.00;32.30;;;;;;5152248;27;20500;-74
2022/03/20 11:16:50;;;;;;;16.27;14.55;;;15.00;32.40;;;;;;5152552;27;20272;-75
2022/03/20 11:19:23;;;;;;;15.63;13.57;;;14.90;32.50;;;;;;5152334;27;20042;-75
2022/03/20 11:21:53;;;;;;;15.57;13.70;;;14.90;32.60;;;;;;5152329;27;20591;-75
2022/03/20 11:24:19;;;;;;;15.25;13.43;;;14.80;32.60;;;;;;5152038;27;20090;-74
2022/03/20 11:26:50;;;;;;;17.92;14.10;;;14.80;32.80;;;;;;5151473;27;20500;-75
2022/03/20 11:29:17;;;;;;;14.77;13.27;;;14.80;32.90;;;;;;5151767;27;20042;-74
2022/03/20 11:31:49;;;;;;;15.23;13.63;;;14.70;32.90;;;;;;5151757;27;20117;-75
2022/03/20 11:34:17;;;;;;;16.00;14.25;;;14.70;33.00;;;;;;5151348;27;20526;-74
2022/03/20 11:37:03;;;;;;;20.17;14.75;;;14.70;33.00;;;;;;5151654;27;20046;-73
2022/03/20 11:39:29;;;;;;;16.45;14.02;;;14.60;32.90;;;;;;5149215;27;20043;-74
2022/03/20 11:42:26;;;;;;;17.77;14.50;;;14.60;33.10;;;;;;5170534;27;20447;-73
2022/03/20 11:47:49;;;;;;;16.17;14.48;;;14.60;33.10;;;;;;5130149;27;20946;-72
2022/03/20 11:55:49;;;;;;;16.45;14.63;;;14.50;33.40;;;;;;5109639;27;20400;-73
2022/03/20 12:01:06;;;;;;;16.30;14.60;;;14.40;33.50;;;;;;5129626;27;20422;-75
2022/03/20 12:14:53;;;;;;;15.80;13.57;;;14.40;33.60;;;;;;5129530;27;20379;-72
2022/03/20 12:17:19;;;;;;;15.57;13.98;;;14.40;33.80;;;;;;5128415;28;20116;-72
2022/03/20 12:19:49;;;;;;;14.85;12.95;;;14.40;33.80;;;;;;5128140;28;20055;-72
2022/03/20 12:27:38;;;;;;;14.93;13.32;;;14.30;33.80;;;;;;5109080;27;20433;-74
2022/03/20 12:33:01;;;;;;;15.23;13.57;;;14.40;34.00;;;;;;5088980;27;20385;-72
2022/03/20 12:35:45;;;;;;;15.30;13.48;;;14.30;34.00;;;;;;5087118;28;20048;-72
2022/03/20 12:41:14;;;;;;;14.82;13.25;;;14.30;34.10;;;;;;5129686;27;20406;-73
2022/03/20 12:43:43;;;;;;;14.35;12.75;;;14.30;34.10;;;;;;5128814;28;20490;-72
2022/03/20 12:46:10;;;;;;;13.85;12.32;;;14.30;34.10;;;;;;5128680;28;20042;-72
2022/03/20 12:48:36;;;;;;;13.57;12.10;;;14.30;34.20;;;;;;5128816;28;20031;-72
2022/03/20 12:51:09;;;;;;;16.02;13.40;;;14.30;34.20;;;;;;5128730;28;20522;-72
2022/03/20 12:53:39;;;;;;;17.15;15.25;;;14.30;34.30;;;;;;5128881;28;20039;-73
2022/03/20 12:56:09;;;;;;;15.95;13.73;;;14.30;34.20;;;;;;5129602;27;20087;-75
2022/03/20 12:58:35;;;;;;;14.85;13.02;;;14.30;34.30;;;;;;5129611;27;20032;-74
2022/03/20 13:01:07;;;;;;;15.15;13.55;;;14.30;34.40;;;;;;5128247;28;20538;-74
2022/03/20 13:03:33;;;;;;;16.83;12.85;;;14.20;34.30;;;;;;5128727;28;20071;-74
2022/03/20 13:06:00;;;;;;;14.23;12.73;;;14.20;34.40;;;;;;5128448;28;20386;-74
2022/03/20 13:08:31;;;;;;;14.85;12.95;;;14.20;34.40;;;;;;5129481;28;20039;-74
2022/03/20 13:11:00;;;;;;;14.52;12.68;;;14.20;34.50;;;;;;5128325;28;20390;-75
2022/03/20 13:13:29;;;;;;;13.63;12.10;;;14.20;34.50;;;;;;5128338;28;20062;-74
2022/03/20 13:15:54;;;;;;;14.80;13.27;;;14.20;34.60;;;;;;5128233;28;20051;-74
2022/03/20 13:18:25;;;;;;;14.55;13.00;;;14.20;34.70;;;;;;5129566;28;20042;-74
2022/03/20 13:20:51;;;;;;;16.15;12.90;;;14.20;34.70;;;;;;5128044;28;20069;-74
2022/03/20 13:23:21;;;;;;;14.82;12.85;;;14.20;34.70;;;;;;5128170;28;20043;-74
2022/03/20 13:25:53;;;;;;;14.20;12.27;;;14.20;34.80;;;;;;5127844;28;20114;-74
2022/03/20 13:28:26;;;;;;;13.55;11.45;;;14.20;34.80;;;;;;5127798;28;20483;-74
2022/03/20 13:30:54;;;;;;;13.15;11.70;;;14.20;34.80;;;;;;5129012;28;20114;-74
2022/03/20 13:33:34;;;;;;;13.75;12.32;;;14.20;34.80;;;;;;5127533;28;20042;-74
2022/03/20 13:36:02;;;;;;;13.90;12.45;;;14.20;34.90;;;;;;5127283;28;20047;-74
2022/03/20 13:38:33;;;;;;;13.35;11.88;;;14.30;34.90;;;;;;5128070;28;20054;-75
2022/03/20 13:41:08;;;;;;;12.68;11.38;;;14.20;34.90;;;;;;5127164;28;20055;-74
2022/03/20 13:43:34;;;;;;;14.48;12.02;;;14.20;34.90;;;;;;5127798;28;20118;-75
2022/03/20 13:46:21;;;;;;;13.93;12.52;;;14.20;34.90;;;;;;5127605;28;20449;-74
2022/03/20 13:48:49;;;;;;;14.63;12.95;;;14.20;35.10;;;;;;5127311;27;20093;-75
2022/03/20 13:51:19;;;;;;;13.48;12.07;;;14.20;35.00;;;;;;5120906;28;20032;-74
2022/03/20 13:53:45;;;;;;;15.70;12.23;;;14.20;35.10;;;;;;5113933;28;20569;-75
2022/03/20 13:56:26;;;;;;;13.63;12.20;;;14.20;35.10;;;;;;5113458;28;20039;-75
2022/03/20 13:59:03;;;;;;;13.02;11.63;;;14.20;35.20;;;;;;5114974;28;20031;-74
2022/03/20 14:01:30;;;;;;;12.02;10.77;;;14.20;35.30;;;;;;5113821;28;20084;-74
2022/03/20 14:03:57;;;;;;;13.15;11.85;;;14.20;35.30;;;;;;5113532;28;20471;-74
2022/03/20 14:06:25;;;;;;;14.70;12.15;;;14.20;35.30;;;;;;5114917;28;20534;-74